Etusivu
METAR-TAF:

METAR-TAF

Lentoasemat :

Heliport

Værøy, Norja

Leveyspiiri: 67-39-16N, Pituuspiiri: 12-43-37E, korkeus merenpinnasta: 5 m

Tämänhetkinen sää

Tämä raportti tehtiin 18 tuntia ja 11 minuuttia sitten, kello 06.50 UTC
Tuuli 8 kn pohjoisesta
Lämpötila 14°C
Kosteus 82%
Ilmanpaine 1008 hPa
Näkyvyys 10 km tai enemmän
ei pilviä alle 1500 m:ssä eikä cumulonimbus-pilviä

METAR: ENVR 210650Z 35008KT CAVOK 14/11 Q1008

Aika: 03:01 (01:01 UTC)


TAF: puuttuu

Säähavainnot ja -ennusteet yli 4000 lentoasemalta (METAR- ja TAF-raportit).

Käytössä olevat sääasemat on merkitty karttaan keltaisilla ja punaisilla pisteillä.

Aseta hiiri pisteen päälle nähdäksesi sääaseman nimen.

Klikkaa sitten nähdäksesi säähavainnot ja -ennusteet.

Kartan vaihtaminen: klikkaa mustalla rastilla varustettuja vihreitä pisteitä, niin voit zoomata sisään; viivalla varustettua vihreää pistettä, niin voit zoomata ulos tai vihreitä nuolia, niin pääset viereisille kartoille.


METAR-TAF: